sensor_id;sensor_type;location;lat;lon;timestamp;pressure;altitude;pressure_sealevel;temperature;humidity
15674;BME280;7937;48.090;16.212;2023-06-22T00:02:16;98120.81;;;17.57;89.43
15674;BME280;7937;48.090;16.212;2023-06-22T00:05:18;98116.53;;;17.56;89.45
15674;BME280;7937;48.090;16.212;2023-06-22T00:08:20;98119.75;;;17.53;89.61
15674;BME280;7937;48.090;16.212;2023-06-22T00:11:22;98120.03;;;17.51;90.09
15674;BME280;7937;48.090;16.212;2023-06-22T00:14:25;98122.75;;;17.46;90.64
15674;BME280;7937;48.090;16.212;2023-06-22T00:17:27;98112.53;;;17.38;91.11
15674;BME280;7937;48.090;16.212;2023-06-22T00:20:29;98116.59;;;17.36;91.20
15674;BME280;7937;48.090;16.212;2023-06-22T00:23:33;98097.53;;;17.22;91.46
15674;BME280;7937;48.090;16.212;2023-06-22T00:26:36;98115.03;;;17.30;92.18
15674;BME280;7937;48.090;16.212;2023-06-22T00:29:40;98112.88;;;17.26;92.30
15674;BME280;7937;48.090;16.212;2023-06-22T00:32:43;98106.97;;;17.24;92.48
15674;BME280;7937;48.090;16.212;2023-06-22T00:35:48;98111.78;;;17.22;92.45
15674;BME280;7937;48.090;16.212;2023-06-22T00:38:50;98106.13;;;17.24;92.46
15674;BME280;7937;48.090;16.212;2023-06-22T00:41:52;98110.69;;;17.28;92.48
15674;BME280;7937;48.090;16.212;2023-06-22T00:44:55;98114.47;;;17.27;92.19
15674;BME280;7937;48.090;16.212;2023-06-22T00:47:58;98104.28;;;17.19;92.97
15674;BME280;7937;48.090;16.212;2023-06-22T00:51:02;98110.75;;;17.13;93.58
15674;BME280;7937;48.090;16.212;2023-06-22T00:54:04;98105.91;;;17.10;93.71
15674;BME280;7937;48.090;16.212;2023-06-22T00:57:07;98106.75;;;17.06;93.66
15674;BME280;7937;48.090;16.212;2023-06-22T01:00:14;98100.81;;;17.03;93.34
15674;BME280;7937;48.090;16.212;2023-06-22T01:03:19;98101.88;;;17.02;93.55
15674;BME280;7937;48.090;16.212;2023-06-22T01:06:28;98098.91;;;17.04;93.90
15674;BME280;7937;48.090;16.212;2023-06-22T01:09:34;98098.41;;;17.02;93.39
15674;BME280;7937;48.090;16.212;2023-06-22T01:12:51;98095.19;;;16.95;93.47
15674;BME280;7937;48.090;16.212;2023-06-22T01:19:28;98085.50;;;16.84;94.13
15674;BME280;7937;48.090;16.212;2023-06-22T01:23:04;98083.63;;;16.79;94.57
15674;BME280;7937;48.090;16.212;2023-06-22T01:26:40;98076.38;;;16.80;94.02
15674;BME280;7937;48.090;16.212;2023-06-22T01:29:44;98064.28;;;16.72;93.73
15674;BME280;7937;48.090;16.212;2023-06-22T01:32:47;98076.91;;;16.82;93.94
15674;BME280;7937;48.090;16.212;2023-06-22T01:35:50;98091.44;;;16.81;93.53
15674;BME280;7937;48.090;16.212;2023-06-22T01:38:53;98092.25;;;16.76;93.67
15674;BME280;7937;48.090;16.212;2023-06-22T01:41:57;98083.38;;;16.75;93.75
15674;BME280;7937;48.090;16.212;2023-06-22T01:44:59;98086.09;;;16.75;93.52
15674;BME280;7937;48.090;16.212;2023-06-22T01:48:02;98079.06;;;16.74;93.76
15674;BME280;7937;48.090;16.212;2023-06-22T01:51:05;98069.66;;;16.67;93.34
15674;BME280;7937;48.090;16.212;2023-06-22T01:54:07;98084.41;;;16.69;93.70
15674;BME280;7937;48.090;16.212;2023-06-22T01:57:13;98080.41;;;16.67;93.75
15674;BME280;7937;48.090;16.212;2023-06-22T02:00:19;98077.72;;;16.62;94.03
15674;BME280;7937;48.090;16.212;2023-06-22T02:03:38;98081.22;;;16.57;94.17
15674;BME280;7937;48.090;16.212;2023-06-22T02:06:45;98090.09;;;16.52;94.20
15674;BME280;7937;48.090;16.212;2023-06-22T02:09:51;98086.88;;;16.45;94.62
15674;BME280;7937;48.090;16.212;2023-06-22T02:12:57;98074.25;;;16.41;94.64
15674;BME280;7937;48.090;16.212;2023-06-22T02:16:00;98066.44;;;16.29;95.02
15674;BME280;7937;48.090;16.212;2023-06-22T02:19:03;98074.78;;;16.33;94.84
15674;BME280;7937;48.090;16.212;2023-06-22T02:22:08;98073.69;;;16.29;95.10
15674;BME280;7937;48.090;16.212;2023-06-22T02:25:11;98078.00;;;16.24;95.48
15674;BME280;7937;48.090;16.212;2023-06-22T02:28:13;98074.50;;;16.19;95.82
15674;BME280;7937;48.090;16.212;2023-06-22T02:31:15;98065.34;;;16.15;95.97
15674;BME280;7937;48.090;16.212;2023-06-22T02:34:18;98065.09;;;16.16;95.71
15674;BME280;7937;48.090;16.212;2023-06-22T02:37:20;98059.97;;;16.15;95.64
15674;BME280;7937;48.090;16.212;2023-06-22T02:40:22;98061.88;;;16.14;95.95
15674;BME280;7937;48.090;16.212;2023-06-22T02:43:24;98072.91;;;16.18;95.71
15674;BME280;7937;48.090;16.212;2023-06-22T02:46:26;98064.31;;;16.21;95.91
15674;BME280;7937;48.090;16.212;2023-06-22T02:49:29;98066.44;;;16.24;95.73
15674;BME280;7937;48.090;16.212;2023-06-22T02:52:31;98025.31;;;15.98;95.61
15674;BME280;7937;48.090;16.212;2023-06-22T02:55:33;98068.03;;;16.20;95.53
15674;BME280;7937;48.090;16.212;2023-06-22T02:58:35;98069.69;;;16.16;95.54
15674;BME280;7937;48.090;16.212;2023-06-22T03:01:44;98069.13;;;16.09;95.40
15674;BME280;7937;48.090;16.212;2023-06-22T03:04:57;98069.91;;;16.04;95.47
15674;BME280;7937;48.090;16.212;2023-06-22T03:07:59;98061.06;;;15.98;95.92
15674;BME280;7937;48.090;16.212;2023-06-22T03:11:05;98058.88;;;15.90;96.45
15674;BME280;7937;48.090;16.212;2023-06-22T03:14:07;98061.31;;;15.87;96.88
15674;BME280;7937;48.090;16.212;2023-06-22T03:17:09;98065.59;;;15.83;97.42
15674;BME280;7937;48.090;16.212;2023-06-22T03:20:12;98072.06;;;15.82;97.20
15674;BME280;7937;48.090;16.212;2023-06-22T03:23:15;98050.53;;;15.71;97.42
15674;BME280;7937;48.090;16.212;2023-06-22T03:26:18;98055.66;;;15.78;97.08
15674;BME280;7937;48.090;16.212;2023-06-22T03:29:20;98058.34;;;15.78;97.54
15674;BME280;7937;48.090;16.212;2023-06-22T03:32:23;98058.34;;;15.78;98.11
15674;BME280;7937;48.090;16.212;2023-06-22T03:35:26;98049.47;;;15.83;98.24
15674;BME280;7937;48.090;16.212;2023-06-22T03:38:29;98054.59;;;15.89;98.22
15674;BME280;7937;48.090;16.212;2023-06-22T03:41:32;98054.88;;;15.93;98.00
15674;BME280;7937;48.090;16.212;2023-06-22T03:44:35;98052.19;;;15.98;97.78
15674;BME280;7937;48.090;16.212;2023-06-22T03:47:40;98057.28;;;16.05;97.89
15674;BME280;7937;48.090;16.212;2023-06-22T03:50:43;98067.78;;;16.11;97.91
15674;BME280;7937;48.090;16.212;2023-06-22T03:53:46;98076.38;;;16.13;97.61
15674;BME280;7937;48.090;16.212;2023-06-22T03:56:48;98065.34;;;16.15;97.56
15674;BME280;7937;48.090;16.212;2023-06-22T03:59:50;98076.91;;;16.15;97.43
15674;BME280;7937;48.090;16.212;2023-06-22T04:02:52;98063.75;;;16.14;97.23
15674;BME280;7937;48.090;16.212;2023-06-22T04:05:55;98054.34;;;16.11;97.62
15674;BME280;7937;48.090;16.212;2023-06-22T04:08:58;98049.50;;;16.13;97.79
15674;BME280;7937;48.090;16.212;2023-06-22T04:12:01;98045.50;;;16.16;97.57
15674;BME280;7937;48.090;16.212;2023-06-22T04:15:04;98039.84;;;16.17;97.64
15674;BME280;7937;48.090;16.212;2023-06-22T04:18:06;98030.69;;;16.18;97.70
15674;BME280;7937;48.090;16.212;2023-06-22T04:21:08;98028.28;;;16.22;98.08
15674;BME280;7937;48.090;16.212;2023-06-22T04:24:11;98024.78;;;16.27;97.93
15674;BME280;7937;48.090;16.212;2023-06-22T04:27:13;98027.19;;;16.33;98.07
15674;BME280;7937;48.090;16.212;2023-06-22T04:30:15;98036.84;;;16.39;98.12
15674;BME280;7937;48.090;16.212;2023-06-22T04:33:18;98024.75;;;16.42;97.68
15674;BME280;7937;48.090;16.212;2023-06-22T04:36:20;98037.63;;;16.50;97.92
15674;BME280;7937;48.090;16.212;2023-06-22T04:39:25;98030.13;;;16.47;97.88
15674;BME280;7937;48.090;16.212;2023-06-22T04:42:28;98044.66;;;16.56;98.13
15674;BME280;7937;48.090;16.212;2023-06-22T04:45:31;98039.00;;;16.58;98.61
15674;BME280;7937;48.090;16.212;2023-06-22T04:48:33;98043.84;;;16.61;99.17
15674;BME280;7937;48.090;16.212;2023-06-22T04:51:40;98042.47;;;16.63;99.49
15674;BME280;7937;48.090;16.212;2023-06-22T04:54:43;98029.03;;;16.63;100.00
15674;BME280;7937;48.090;16.212;2023-06-22T04:57:52;98039.78;;;16.73;99.49
15674;BME280;7937;48.090;16.212;2023-06-22T05:00:54;98044.91;;;16.80;99.49
15674;BME280;7937;48.090;16.212;2023-06-22T05:03:58;98054.00;;;16.89;99.12
15674;BME280;7937;48.090;16.212;2023-06-22T05:07:03;98048.34;;;16.96;99.00
15674;BME280;7937;48.090;16.212;2023-06-22T05:10:06;98050.75;;;17.02;99.03
15674;BME280;7937;48.090;16.212;2023-06-22T05:13:08;98052.09;;;17.10;98.55
15674;BME280;7937;48.090;16.212;2023-06-22T05:16:10;98048.53;;;17.20;98.87
15674;BME280;7937;48.090;16.212;2023-06-22T05:19:13;98045.53;;;17.26;98.45
15674;BME280;7937;48.090;16.212;2023-06-22T05:22:15;98048.72;;;17.34;98.12
15674;BME280;7937;48.090;16.212;2023-06-22T05:25:18;98049.25;;;17.41;98.05
15674;BME280;7937;48.090;16.212;2023-06-22T05:28:20;98051.91;;;17.51;98.26
15674;BME280;7937;48.090;16.212;2023-06-22T05:31:25;98048.63;;;17.59;98.03
15674;BME280;7937;48.090;16.212;2023-06-22T05:34:27;98048.03;;;17.67;97.64
15674;BME280;7937;48.090;16.212;2023-06-22T05:37:30;98034.56;;;17.67;97.69
15674;BME280;7937;48.090;16.212;2023-06-22T05:40:32;98049.00;;;17.87;97.11
15674;BME280;7937;48.090;16.212;2023-06-22T05:43:34;98024.53;;;17.78;97.10
15674;BME280;7937;48.090;16.212;2023-06-22T05:46:39;98055.91;;;18.08;96.98
15674;BME280;7937;48.090;16.212;2023-06-22T05:49:41;98059.31;;;18.19;96.24
15674;BME280;7937;48.090;16.212;2023-06-22T05:52:43;98054.13;;;18.27;96.48
15674;BME280;7937;48.090;16.212;2023-06-22T05:55:46;98053.44;;;18.41;95.93
15674;BME280;7937;48.090;16.212;2023-06-22T05:58:48;98059.00;;;18.54;95.88
15674;BME280;7937;48.090;16.212;2023-06-22T06:01:50;98057.81;;;18.66;95.17
15674;BME280;7937;48.090;16.212;2023-06-22T06:04:53;98060.16;;;18.77;95.41
15674;BME280;7937;48.090;16.212;2023-06-22T06:07:56;98063.25;;;18.90;94.91
15674;BME280;7937;48.090;16.212;2023-06-22T06:10:58;98064.50;;;19.02;94.96
15674;BME280;7937;48.090;16.212;2023-06-22T06:14:00;98054.94;;;19.10;93.69
15674;BME280;7937;48.090;16.212;2023-06-22T06:17:03;98050.91;;;19.31;93.54
15674;BME280;7937;48.090;16.212;2023-06-22T06:20:05;98054.22;;;19.47;93.18
15674;BME280;7937;48.090;16.212;2023-06-22T06:23:09;98069.16;;;19.64;92.87
15674;BME280;7937;48.090;16.212;2023-06-22T06:26:11;98056.75;;;19.81;91.80
15674;BME280;7937;48.090;16.212;2023-06-22T06:29:13;98057.84;;;19.99;91.74
15674;BME280;7937;48.090;16.212;2023-06-22T06:32:18;98051.81;;;20.21;90.96
15674;BME280;7937;48.090;16.212;2023-06-22T06:35:20;98054.88;;;20.33;90.08
15674;BME280;7937;48.090;16.212;2023-06-22T06:38:23;98049.34;;;20.57;89.15
15674;BME280;7937;48.090;16.212;2023-06-22T06:41:25;98048.50;;;20.76;87.83
15674;BME280;7937;48.090;16.212;2023-06-22T06:44:27;98043.09;;;20.90;86.88
15674;BME280;7937;48.090;16.212;2023-06-22T06:47:29;98024.63;;;20.92;85.48
15674;BME280;7937;48.090;16.212;2023-06-22T06:50:31;98037.66;;;21.17;85.12
15674;BME280;7937;48.090;16.212;2023-06-22T06:53:36;98043.09;;;21.31;84.05
15674;BME280;7937;48.090;16.212;2023-06-22T06:56:38;98045.22;;;21.48;81.18
15674;BME280;7937;48.090;16.212;2023-06-22T06:59:40;98045.94;;;21.76;76.31
15674;BME280;7937;48.090;16.212;2023-06-22T07:02:43;98043.44;;;22.02;76.89
15674;BME280;7937;48.090;16.212;2023-06-22T07:05:46;98041.72;;;22.06;78.20
15674;BME280;7937;48.090;16.212;2023-06-22T07:08:48;98037.81;;;22.12;76.26
15674;BME280;7937;48.090;16.212;2023-06-22T07:11:50;98040.97;;;22.28;75.18
15674;BME280;7937;48.090;16.212;2023-06-22T07:14:53;98015.75;;;22.36;74.72
15674;BME280;7937;48.090;16.212;2023-06-22T07:17:55;98039.59;;;22.70;72.90
15674;BME280;7937;48.090;16.212;2023-06-22T07:20:57;98029.81;;;22.91;70.00
15674;BME280;7937;48.090;16.212;2023-06-22T07:24:00;98026.97;;;23.05;69.48
15674;BME280;7937;48.090;16.212;2023-06-22T07:27:02;98027.16;;;23.09;72.35
15674;BME280;7937;48.090;16.212;2023-06-22T07:30:06;98021.41;;;23.02;72.72
15674;BME280;7937;48.090;16.212;2023-06-22T07:33:08;98035.00;;;23.10;73.91
15674;BME280;7937;48.090;16.212;2023-06-22T07:36:10;98035.03;;;23.19;73.12
15674;BME280;7937;48.090;16.212;2023-06-22T07:39:13;98036.63;;;23.20;72.74
15674;BME280;7937;48.090;16.212;2023-06-22T07:42:16;98026.09;;;23.27;70.95
15674;BME280;7937;48.090;16.212;2023-06-22T07:45:20;98040.19;;;23.38;73.07
15674;BME280;7937;48.090;16.212;2023-06-22T07:48:23;98042.31;;;23.50;70.65
15674;BME280;7937;48.090;16.212;2023-06-22T07:51:25;98031.00;;;23.65;69.62
15674;BME280;7937;48.090;16.212;2023-06-22T07:54:27;98028.94;;;23.79;68.90
15674;BME280;7937;48.090;16.212;2023-06-22T07:57:30;98037.41;;;23.95;68.85
15674;BME280;7937;48.090;16.212;2023-06-22T08:00:36;98035.16;;;24.06;66.63
15674;BME280;7937;48.090;16.212;2023-06-22T08:03:38;98020.91;;;24.17;66.31
15674;BME280;7937;48.090;16.212;2023-06-22T08:06:41;98028.09;;;24.22;67.60
15674;BME280;7937;48.090;16.212;2023-06-22T08:09:46;98025.38;;;24.22;68.52
15674;BME280;7937;48.090;16.212;2023-06-22T08:12:49;98037.22;;;24.26;67.27
15674;BME280;7937;48.090;16.212;2023-06-22T08:15:53;98032.75;;;24.30;64.98
15674;BME280;7937;48.090;16.212;2023-06-22T08:18:55;98044.59;;;24.34;66.42
15674;BME280;7937;48.090;16.212;2023-06-22T08:21:58;98036.13;;;24.36;65.38
15674;BME280;7937;48.090;16.212;2023-06-22T08:25:00;98027.44;;;24.42;63.56
15674;BME280;7937;48.090;16.212;2023-06-22T08:28:03;98037.81;;;24.66;65.21
15674;BME280;7937;48.090;16.212;2023-06-22T08:31:05;98043.09;;;24.63;66.73
15674;BME280;7937;48.090;16.212;2023-06-22T08:34:08;98038.47;;;24.63;67.11
15674;BME280;7937;48.090;16.212;2023-06-22T08:37:10;98020.47;;;24.71;61.17
15674;BME280;7937;48.090;16.212;2023-06-22T08:40:12;98036.28;;;24.86;60.99
15674;BME280;7937;48.090;16.212;2023-06-22T08:43:14;98024.06;;;24.92;60.92
15674;BME280;7937;48.090;16.212;2023-06-22T08:46:17;98028.06;;;25.04;61.97
15674;BME280;7937;48.090;16.212;2023-06-22T08:49:23;98021.13;;;25.06;61.51
15674;BME280;7937;48.090;16.212;2023-06-22T08:52:25;98025.97;;;25.01;63.39
15674;BME280;7937;48.090;16.212;2023-06-22T08:55:28;98023.53;;;25.16;60.99
15674;BME280;7937;48.090;16.212;2023-06-22T08:58:30;98015.22;;;25.13;60.54
15674;BME280;7937;48.090;16.212;2023-06-22T09:01:33;98017.41;;;25.19;60.08
15674;BME280;7937;48.090;16.212;2023-06-22T09:04:35;98018.97;;;25.29;60.05
15674;BME280;7937;48.090;16.212;2023-06-22T09:07:38;98014.72;;;25.40;61.04
15674;BME280;7937;48.090;16.212;2023-06-22T09:10:40;98019.03;;;25.41;59.19
15674;BME280;7937;48.090;16.212;2023-06-22T09:13:42;98026.84;;;25.52;58.94
15674;BME280;7937;48.090;16.212;2023-06-22T09:16:44;98006.34;;;25.45;60.45
15674;BME280;7937;48.090;16.212;2023-06-22T09:19:46;98013.16;;;25.60;57.68
15674;BME280;7937;48.090;16.212;2023-06-22T09:22:49;98019.75;;;25.80;56.99
15674;BME280;7937;48.090;16.212;2023-06-22T09:25:51;98012.25;;;25.77;60.21
15674;BME280;7937;48.090;16.212;2023-06-22T09:28:53;98010.78;;;25.80;59.60
15674;BME280;7937;48.090;16.212;2023-06-22T09:31:56;98020.28;;;25.94;59.26
15674;BME280;7937;48.090;16.212;2023-06-22T09:34:58;98000.19;;;25.99;58.09
15674;BME280;7937;48.090;16.212;2023-06-22T09:38:00;98016.56;;;25.99;58.62
15674;BME280;7937;48.090;16.212;2023-06-22T09:41:02;97994.00;;;25.90;57.84
15674;BME280;7937;48.090;16.212;2023-06-22T09:44:05;98010.75;;;26.01;59.46
15674;BME280;7937;48.090;16.212;2023-06-22T09:47:07;98000.84;;;26.17;57.10
15674;BME280;7937;48.090;16.212;2023-06-22T09:50:09;98000.28;;;26.23;55.85
15674;BME280;7937;48.090;16.212;2023-06-22T09:53:11;97995.59;;;26.24;56.79
15674;BME280;7937;48.090;16.212;2023-06-22T09:56:14;97997.31;;;26.29;58.44
15674;BME280;7937;48.090;16.212;2023-06-22T09:59:17;97993.59;;;26.33;61.73
15674;BME280;7937;48.090;16.212;2023-06-22T10:02:19;97995.53;;;26.33;62.29
15674;BME280;7937;48.090;16.212;2023-06-22T10:05:22;97982.72;;;26.45;60.03
15674;BME280;7937;48.090;16.212;2023-06-22T10:08:25;97995.25;;;26.59;61.57
15674;BME280;7937;48.090;16.212;2023-06-22T10:11:27;97974.78;;;26.53;63.39
15674;BME280;7937;48.090;16.212;2023-06-22T10:14:32;97997.69;;;26.60;63.67
15674;BME280;7937;48.090;16.212;2023-06-22T10:17:34;97997.81;;;26.76;59.52
15674;BME280;7937;48.090;16.212;2023-06-22T10:20:36;97988.34;;;26.73;57.67
15674;BME280;7937;48.090;16.212;2023-06-22T10:23:38;97967.84;;;26.67;60.54
15674;BME280;7937;48.090;16.212;2023-06-22T10:26:40;97986.63;;;26.93;54.85
15674;BME280;7937;48.090;16.212;2023-06-22T10:29:43;97982.66;;;27.03;53.05
15674;BME280;7937;48.090;16.212;2023-06-22T10:32:46;97982.19;;;26.89;54.92
15674;BME280;7937;48.090;16.212;2023-06-22T10:35:48;97977.53;;;26.89;54.39
15674;BME280;7937;48.090;16.212;2023-06-22T10:38:50;97984.38;;;26.95;55.69
15674;BME280;7937;48.090;16.212;2023-06-22T10:41:54;97980.63;;;27.00;56.10
15674;BME280;7937;48.090;16.212;2023-06-22T10:44:58;97985.75;;;27.01;59.85
15674;BME280;7937;48.090;16.212;2023-06-22T10:48:00;97977.09;;;26.99;55.65
15674;BME280;7937;48.090;16.212;2023-06-22T10:51:02;97971.94;;;26.98;55.05
15674;BME280;7937;48.090;16.212;2023-06-22T10:54:04;97966.38;;;27.07;54.17
15674;BME280;7937;48.090;16.212;2023-06-22T10:57:06;97970.47;;;27.13;53.46
15674;BME280;7937;48.090;16.212;2023-06-22T11:00:09;97968.66;;;27.29;52.49
15674;BME280;7937;48.090;16.212;2023-06-22T11:03:13;97962.59;;;27.23;54.78
15674;BME280;7937;48.090;16.212;2023-06-22T11:06:16;97952.69;;;27.19;54.99
15674;BME280;7937;48.090;16.212;2023-06-22T11:09:18;97954.31;;;27.20;54.58
15674;BME280;7937;48.090;16.212;2023-06-22T11:12:29;97940.28;;;27.21;55.48
15674;BME280;7937;48.090;16.212;2023-06-22T11:15:31;97943.00;;;27.21;55.48
15674;BME280;7937;48.090;16.212;2023-06-22T11:18:33;97939.38;;;27.30;54.80
15674;BME280;7937;48.090;16.212;2023-06-22T11:21:35;97939.22;;;27.38;54.83
15674;BME280;7937;48.090;16.212;2023-06-22T11:24:37;97936.34;;;27.47;53.18
15674;BME280;7937;48.090;16.212;2023-06-22T11:27:40;97934.16;;;27.52;53.20
15674;BME280;7937;48.090;16.212;2023-06-22T11:30:42;97929.34;;;27.62;54.13
15674;BME280;7937;48.090;16.212;2023-06-22T11:33:44;97933.59;;;27.59;52.81
15674;BME280;7937;48.090;16.212;2023-06-22T11:36:50;97934.00;;;27.61;53.52
15674;BME280;7937;48.090;16.212;2023-06-22T11:39:52;97912.63;;;27.51;53.77
15674;BME280;7937;48.090;16.212;2023-06-22T11:43:08;97940.03;;;27.67;53.75
15674;BME280;7937;48.090;16.212;2023-06-22T11:46:10;97939.81;;;27.72;53.27
15674;BME280;7937;48.090;16.212;2023-06-22T11:49:12;97937.09;;;27.72;52.06
15674;BME280;7937;48.090;16.212;2023-06-22T11:52:14;97929.56;;;27.69;52.45
15674;BME280;7937;48.090;16.212;2023-06-22T11:55:16;97926.25;;;27.75;52.69
15674;BME280;7937;48.090;16.212;2023-06-22T11:58:19;97921.31;;;27.81;53.96
15674;BME280;7937;48.090;16.212;2023-06-22T12:01:21;97922.22;;;27.85;53.54
15674;BME280;7937;48.090;16.212;2023-06-22T12:04:23;97916.66;;;27.97;53.04
15674;BME280;7937;48.090;16.212;2023-06-22T12:07:26;97914.72;;;27.98;51.87
15674;BME280;7937;48.090;16.212;2023-06-22T12:10:28;97918.09;;;28.07;53.53
15674;BME280;7937;48.090;16.212;2023-06-22T12:13:31;97912.59;;;28.07;52.77
15674;BME280;7937;48.090;16.212;2023-06-22T12:16:33;97914.75;;;28.14;52.21
15674;BME280;7937;48.090;16.212;2023-06-22T12:19:35;97916.47;;;28.34;53.04
15674;BME280;7937;48.090;16.212;2023-06-22T12:22:37;97914.44;;;28.47;53.39
15674;BME280;7937;48.090;16.212;2023-06-22T12:25:40;97902.53;;;28.39;52.96
15674;BME280;7937;48.090;16.212;2023-06-22T12:28:42;97906.97;;;28.32;51.59
15674;BME280;7937;48.090;16.212;2023-06-22T12:31:44;97912.69;;;28.39;52.42
15674;BME280;7937;48.090;16.212;2023-06-22T12:34:46;97898.53;;;28.52;53.74
15674;BME280;7937;48.090;16.212;2023-06-22T12:37:48;97903.22;;;28.68;54.42
15674;BME280;7937;48.090;16.212;2023-06-22T12:40:51;97878.28;;;28.73;54.55
15674;BME280;7937;48.090;16.212;2023-06-22T12:43:53;97898.22;;;28.89;52.67
15674;BME280;7937;48.090;16.212;2023-06-22T12:46:55;97887.44;;;28.80;51.24
15674;BME280;7937;48.090;16.212;2023-06-22T12:49:57;97886.81;;;28.87;52.05
15674;BME280;7937;48.090;16.212;2023-06-22T12:52:59;97888.84;;;28.90;50.10
15674;BME280;7937;48.090;16.212;2023-06-22T12:56:04;97876.13;;;28.82;51.34
15674;BME280;7937;48.090;16.212;2023-06-22T12:59:06;97880.47;;;28.83;53.12
15674;BME280;7937;48.090;16.212;2023-06-22T13:02:08;97879.25;;;28.65;52.96
15674;BME280;7937;48.090;16.212;2023-06-22T13:05:10;97874.56;;;28.49;53.88
15674;BME280;7937;48.090;16.212;2023-06-22T13:08:12;97873.06;;;28.52;54.90
15674;BME280;7937;48.090;16.212;2023-06-22T13:11:15;97877.59;;;28.44;53.40
15674;BME280;7937;48.090;16.212;2023-06-22T13:14:17;97865.75;;;28.40;54.61
15674;BME280;7937;48.090;16.212;2023-06-22T13:17:20;97849.28;;;28.40;52.27
15674;BME280;7937;48.090;16.212;2023-06-22T13:20:22;97857.34;;;28.49;53.03
15674;BME280;7937;48.090;16.212;2023-06-22T13:23:24;97857.09;;;28.38;53.12
15674;BME280;7937;48.090;16.212;2023-06-22T13:26:27;97851.59;;;28.38;55.67
15674;BME280;7937;48.090;16.212;2023-06-22T13:29:30;97846.81;;;28.35;56.85
15674;BME280;7937;48.090;16.212;2023-06-22T13:32:33;97842.22;;;28.39;54.21
15674;BME280;7937;48.090;16.212;2023-06-22T13:35:35;97832.91;;;28.60;55.70
15674;BME280;7937;48.090;16.212;2023-06-22T13:38:37;97838.66;;;28.54;55.22
15674;BME280;7937;48.090;16.212;2023-06-22T13:41:42;97839.31;;;28.48;56.71
15674;BME280;7937;48.090;16.212;2023-06-22T13:44:45;97833.75;;;28.44;53.08
15674;BME280;7937;48.090;16.212;2023-06-22T13:47:48;97822.69;;;28.41;54.23
15674;BME280;7937;48.090;16.212;2023-06-22T13:50:50;97832.16;;;28.43;56.80
15674;BME280;7937;48.090;16.212;2023-06-22T13:53:52;97829.47;;;28.47;56.14
15674;BME280;7937;48.090;16.212;2023-06-22T13:56:55;97834.44;;;28.41;56.95
15674;BME280;7937;48.090;16.212;2023-06-22T13:59:57;97835.78;;;28.47;57.23
15674;BME280;7937;48.090;16.212;2023-06-22T14:02:59;97822.78;;;28.44;56.88
15674;BME280;7937;48.090;16.212;2023-06-22T14:06:01;97822.75;;;28.60;54.31
15674;BME280;7937;48.090;16.212;2023-06-22T14:09:03;97823.19;;;28.62;54.76
15674;BME280;7937;48.090;16.212;2023-06-22T14:12:06;97794.91;;;28.42;56.64
15674;BME280;7937;48.090;16.212;2023-06-22T14:15:09;97809.69;;;28.53;56.72
15674;BME280;7937;48.090;16.212;2023-06-22T14:18:11;97808.00;;;28.49;57.26
15674;BME280;7937;48.090;16.212;2023-06-22T14:21:13;97800.84;;;28.44;57.61
15674;BME280;7937;48.090;16.212;2023-06-22T14:24:15;97801.81;;;28.36;57.58
15674;BME280;7937;48.090;16.212;2023-06-22T14:27:17;97797.88;;;28.34;57.60
15674;BME280;7937;48.090;16.212;2023-06-22T14:30:20;97791.09;;;28.31;58.60
15674;BME280;7937;48.090;16.212;2023-06-22T14:33:22;97773.25;;;28.21;58.68
15674;BME280;7937;48.090;16.212;2023-06-22T14:36:24;97778.47;;;28.26;57.68
15674;BME280;7937;48.090;16.212;2023-06-22T14:39:26;97774.94;;;28.26;57.91
15674;BME280;7937;48.090;16.212;2023-06-22T14:42:28;97763.56;;;28.24;57.83
15674;BME280;7937;48.090;16.212;2023-06-22T14:45:31;97768.50;;;28.18;58.98
15674;BME280;7937;48.090;16.212;2023-06-22T14:48:34;97766.66;;;28.07;59.21
15674;BME280;7937;48.090;16.212;2023-06-22T14:51:36;97757.28;;;27.92;60.50
15674;BME280;7937;48.090;16.212;2023-06-22T14:54:38;97749.50;;;27.78;59.67
15674;BME280;7937;48.090;16.212;2023-06-22T14:57:40;97764.56;;;27.84;59.93
15674;BME280;7937;48.090;16.212;2023-06-22T15:00:42;97762.88;;;27.80;60.59
15674;BME280;7937;48.090;16.212;2023-06-22T15:03:44;97769.50;;;27.79;61.63
15674;BME280;7937;48.090;16.212;2023-06-22T15:06:47;97765.69;;;27.83;61.46
15674;BME280;7937;48.090;16.212;2023-06-22T15:09:49;97763.31;;;27.82;61.75
15674;BME280;7937;48.090;16.212;2023-06-22T15:12:51;97758.53;;;27.94;59.94
15674;BME280;7937;48.090;16.212;2023-06-22T15:15:53;97749.06;;;28.08;60.08
15674;BME280;7937;48.090;16.212;2023-06-22T15:18:55;97750.50;;;28.01;59.71
15674;BME280;7937;48.090;16.212;2023-06-22T15:21:57;97747.47;;;28.07;59.42
15674;BME280;7937;48.090;16.212;2023-06-22T15:24:59;97740.16;;;28.11;57.93
15674;BME280;7937;48.090;16.212;2023-06-22T15:28:02;97743.22;;;28.25;57.01
15674;BME280;7937;48.090;16.212;2023-06-22T15:31:06;97744.28;;;28.20;58.39
15674;BME280;7937;48.090;16.212;2023-06-22T15:34:08;97739.78;;;28.12;59.72
15674;BME280;7937;48.090;16.212;2023-06-22T15:37:10;97744.22;;;28.01;60.70
15674;BME280;7937;48.090;16.212;2023-06-22T15:40:13;97735.63;;;28.02;58.41
15674;BME280;7937;48.090;16.212;2023-06-22T15:43:15;97735.03;;;28.09;60.63
15674;BME280;7937;48.090;16.212;2023-06-22T15:46:17;97734.97;;;27.90;61.24
15674;BME280;7937;48.090;16.212;2023-06-22T15:49:19;97734.25;;;27.77;62.13
15674;BME280;7937;48.090;16.212;2023-06-22T15:52:22;97732.47;;;27.69;62.59
15674;BME280;7937;48.090;16.212;2023-06-22T15:55:24;97726.16;;;27.52;63.35
15674;BME280;7937;48.090;16.212;2023-06-22T15:58:26;97722.09;;;27.46;62.82
15674;BME280;7937;48.090;16.212;2023-06-22T16:01:28;97723.25;;;27.45;63.20
15674;BME280;7937;48.090;16.212;2023-06-22T16:04:30;97719.63;;;27.41;63.22
15674;BME280;7937;48.090;16.212;2023-06-22T16:07:33;97718.56;;;27.30;63.02
15674;BME280;7937;48.090;16.212;2023-06-22T16:10:35;97730.88;;;27.24;63.43
15674;BME280;7937;48.090;16.212;2023-06-22T16:13:37;97724.09;;;27.18;64.33